sensor_id;sensor_type;location;lat;lon;timestamp;pressure;altitude;pressure_sealevel;temperature;humidity
60345;BME280;46188;52.324;8.032;2023-07-13T00:00:23;100244.94;;;17.32;91.44
60345;BME280;46188;52.324;8.032;2023-07-13T00:02:48;100253.78;;;17.34;91.10
60345;BME280;46188;52.324;8.032;2023-07-13T00:05:14;100250.25;;;17.32;90.29
60345;BME280;46188;52.324;8.032;2023-07-13T00:07:39;100253.94;;;17.27;90.10
60345;BME280;46188;52.324;8.032;2023-07-13T00:10:04;100251.25;;;17.28;88.84
60345;BME280;46188;52.324;8.032;2023-07-13T00:12:36;100253.88;;;17.30;88.11
60345;BME280;46188;52.324;8.032;2023-07-13T00:15:05;100252.19;;;17.26;87.68
60345;BME280;46188;52.324;8.032;2023-07-13T00:17:31;100265.63;;;17.21;87.10
60345;BME280;46188;52.324;8.032;2023-07-13T00:19:56;100267.41;;;17.19;86.98
60345;BME280;46188;52.324;8.032;2023-07-13T00:22:23;100261.97;;;17.25;86.56
60345;BME280;46188;52.324;8.032;2023-07-13T00:24:51;100260.06;;;17.32;85.73
60345;BME280;46188;52.324;8.032;2023-07-13T00:27:17;100262.72;;;17.32;85.75
60345;BME280;46188;52.324;8.032;2023-07-13T00:29:43;100261.03;;;17.28;85.53
60345;BME280;46188;52.324;8.032;2023-07-13T00:32:10;100260.13;;;17.27;85.59
60345;BME280;46188;52.324;8.032;2023-07-13T00:34:36;100268.16;;;17.26;85.16
60345;BME280;46188;52.324;8.032;2023-07-13T00:37:01;100263.84;;;17.20;85.05
60345;BME280;46188;52.324;8.032;2023-07-13T00:39:27;100266.59;;;17.15;84.71
60345;BME280;46188;52.324;8.032;2023-07-13T00:41:52;100261.31;;;17.12;84.76
60345;BME280;46188;52.324;8.032;2023-07-13T00:44:19;100271.09;;;17.12;85.00
60345;BME280;46188;52.324;8.032;2023-07-13T00:46:45;100270.22;;;17.13;84.94
60345;BME280;46188;52.324;8.032;2023-07-13T00:49:13;100264.91;;;17.11;84.95
60345;BME280;46188;52.324;8.032;2023-07-13T00:51:44;100269.34;;;17.11;85.02
60345;BME280;46188;52.324;8.032;2023-07-13T00:54:15;100265.88;;;17.06;85.42
60345;BME280;46188;52.324;8.032;2023-07-13T00:56:43;100266.69;;;17.09;85.53
60345;BME280;46188;52.324;8.032;2023-07-13T00:59:11;100264.03;;;17.09;85.76
60345;BME280;46188;52.324;8.032;2023-07-13T01:01:37;100264.13;;;17.06;85.75
60345;BME280;46188;52.324;8.032;2023-07-13T01:04:03;100266.78;;;17.06;85.95
60345;BME280;46188;52.324;8.032;2023-07-13T01:06:28;100267.72;;;17.04;86.23
60345;BME280;46188;52.324;8.032;2023-07-13T01:08:56;100271.28;;;17.01;86.26
60345;BME280;46188;52.324;8.032;2023-07-13T01:11:22;100263.41;;;16.96;86.84
60345;BME280;46188;52.324;8.032;2023-07-13T01:13:48;100266.06;;;16.96;87.07
60345;BME280;46188;52.324;8.032;2023-07-13T01:16:24;100265.22;;;16.93;86.82
60345;BME280;46188;52.324;8.032;2023-07-13T01:18:50;100267.84;;;16.96;86.88
60345;BME280;46188;52.324;8.032;2023-07-13T01:21:15;100267.94;;;16.91;86.87
60345;BME280;46188;52.324;8.032;2023-07-13T01:23:40;100262.63;;;16.91;87.13
60345;BME280;46188;52.324;8.032;2023-07-13T01:26:06;100265.22;;;16.93;87.13
60345;BME280;46188;52.324;8.032;2023-07-13T01:28:31;100261.66;;;16.94;87.03
60345;BME280;46188;52.324;8.032;2023-07-13T01:30:58;100244.03;;;16.88;87.33
60345;BME280;46188;52.324;8.032;2023-07-13T01:33:24;100239.63;;;16.86;87.78
60345;BME280;46188;52.324;8.032;2023-07-13T01:35:49;100246.78;;;16.82;87.98
60345;BME280;46188;52.324;8.032;2023-07-13T01:38:17;100238.94;;;16.73;88.18
60345;BME280;46188;52.324;8.032;2023-07-13T01:40:43;100239.13;;;16.64;89.25
60345;BME280;46188;52.324;8.032;2023-07-13T01:43:09;100239.16;;;16.62;89.49
60345;BME280;46188;52.324;8.032;2023-07-13T01:45:34;100239.19;;;16.59;89.58
60345;BME280;46188;52.324;8.032;2023-07-13T01:48:00;100240.97;;;16.60;89.71
60345;BME280;46188;52.324;8.032;2023-07-13T01:50:25;100243.69;;;16.55;89.92
60345;BME280;46188;52.324;8.032;2023-07-13T01:52:51;100244.72;;;16.47;90.58
60345;BME280;46188;52.324;8.032;2023-07-13T01:55:16;100242.94;;;16.47;90.64
60345;BME280;46188;52.324;8.032;2023-07-13T01:57:42;100241.19;;;16.46;90.81
60345;BME280;46188;52.324;8.032;2023-07-13T02:00:09;100241.25;;;16.41;91.30
60345;BME280;46188;52.324;8.032;2023-07-13T02:02:35;100238.56;;;16.43;91.41
60345;BME280;46188;52.324;8.032;2023-07-13T02:05:00;100243.03;;;16.42;91.56
60345;BME280;46188;52.324;8.032;2023-07-13T02:07:25;100243.94;;;16.40;91.48
60345;BME280;46188;52.324;8.032;2023-07-13T02:09:50;100249.31;;;16.38;92.13
60345;BME280;46188;52.324;8.032;2023-07-13T02:12:16;100252.03;;;16.35;92.58
60345;BME280;46188;52.324;8.032;2023-07-13T02:14:41;100244.06;;;16.34;93.02
60345;BME280;46188;52.324;8.032;2023-07-13T02:17:06;100248.50;;;16.32;93.30
60345;BME280;46188;52.324;8.032;2023-07-13T02:19:31;100253.09;;;16.23;93.68
60345;BME280;46188;52.324;8.032;2023-07-13T02:21:57;100262.00;;;16.19;94.36
60345;BME280;46188;52.324;8.032;2023-07-13T02:24:22;100259.38;;;16.18;94.75
60345;BME280;46188;52.324;8.032;2023-07-13T02:26:48;100259.31;;;16.22;95.14
60345;BME280;46188;52.324;8.032;2023-07-13T02:29:13;100256.66;;;16.22;95.28
60345;BME280;46188;52.324;8.032;2023-07-13T02:31:39;100260.28;;;16.17;95.32
60345;BME280;46188;52.324;8.032;2023-07-13T02:34:04;100262.94;;;16.17;95.92
60345;BME280;46188;52.324;8.032;2023-07-13T02:36:31;100251.47;;;16.13;96.46
60345;BME280;46188;52.324;8.032;2023-07-13T02:39:00;100259.41;;;16.15;96.30
60345;BME280;46188;52.324;8.032;2023-07-13T02:41:26;100255.16;;;16.03;96.96
60345;BME280;46188;52.324;8.032;2023-07-13T02:43:51;100265.78;;;16.04;97.37
60345;BME280;46188;52.324;8.032;2023-07-13T02:46:16;100262.22;;;16.07;97.48
60345;BME280;46188;52.324;8.032;2023-07-13T02:48:42;100256.97;;;16.01;98.30
60345;BME280;46188;52.324;8.032;2023-07-13T02:51:07;100249.84;;;16.03;98.30
60345;BME280;46188;52.324;8.032;2023-07-13T02:53:33;100249.06;;;15.96;98.81
60345;BME280;46188;52.324;8.032;2023-07-13T02:55:58;100255.13;;;16.06;98.65
60345;BME280;46188;52.324;8.032;2023-07-13T02:58:24;100261.19;;;16.16;98.70
60345;BME280;46188;52.324;8.032;2023-07-13T03:00:51;100254.13;;;16.13;98.51
60345;BME280;46188;52.324;8.032;2023-07-13T03:03:17;100261.38;;;16.02;98.95
60345;BME280;46188;52.324;8.032;2023-07-13T03:05:43;100256.03;;;16.03;99.58
60345;BME280;46188;52.324;8.032;2023-07-13T03:08:10;100263.03;;;16.12;99.01
60345;BME280;46188;52.324;8.032;2023-07-13T03:10:36;100262.16;;;16.10;99.05
60345;BME280;46188;52.324;8.032;2023-07-13T03:13:02;100270.16;;;16.09;99.29
60345;BME280;46188;52.324;8.032;2023-07-13T03:15:27;100265.84;;;16.00;99.62
60345;BME280;46188;52.324;8.032;2023-07-13T03:17:52;100261.47;;;15.97;99.91
60345;BME280;46188;52.324;8.032;2023-07-13T03:20:18;100267.69;;;15.95;100.00
60345;BME280;46188;52.324;8.032;2023-07-13T03:22:43;100260.59;;;15.95;100.00
60345;BME280;46188;52.324;8.032;2023-07-13T03:25:09;100260.56;;;15.97;99.94
60345;BME280;46188;52.324;8.032;2023-07-13T03:27:34;100280.09;;;15.96;99.91
60345;BME280;46188;52.324;8.032;2023-07-13T03:29:59;100280.94;;;15.99;99.33
60345;BME280;46188;52.324;8.032;2023-07-13T03:32:24;100270.38;;;15.93;99.79
60345;BME280;46188;52.324;8.032;2023-07-13T03:34:50;100268.63;;;15.92;99.80
60345;BME280;46188;52.324;8.032;2023-07-13T03:37:15;100278.41;;;15.89;99.84
60345;BME280;46188;52.324;8.032;2023-07-13T03:39:40;100281.03;;;15.90;99.95
60345;BME280;46188;52.324;8.032;2023-07-13T03:42:06;100280.19;;;15.90;99.70
60345;BME280;46188;52.324;8.032;2023-07-13T03:44:31;100272.31;;;15.80;100.00
60345;BME280;46188;52.324;8.032;2023-07-13T03:46:56;100283.03;;;15.77;100.00
60345;BME280;46188;52.324;8.032;2023-07-13T03:49:22;100283.03;;;15.77;100.00
60345;BME280;46188;52.324;8.032;2023-07-13T03:51:47;100285.56;;;15.83;99.48
60345;BME280;46188;52.324;8.032;2023-07-13T03:54:12;100286.47;;;15.84;99.46
60345;BME280;46188;52.324;8.032;2023-07-13T03:56:38;100290.97;;;15.79;99.57
60345;BME280;46188;52.324;8.032;2023-07-13T03:59:03;100285.59;;;15.80;99.51
60345;BME280;46188;52.324;8.032;2023-07-13T04:01:28;100283.00;;;15.79;99.54
60345;BME280;46188;52.324;8.032;2023-07-13T04:03:54;100293.72;;;15.69;99.67
60345;BME280;46188;52.324;8.032;2023-07-13T04:06:22;100284.97;;;15.58;100.00
60345;BME280;46188;52.324;8.032;2023-07-13T04:08:50;100293.91;;;15.54;100.00
60345;BME280;46188;52.324;8.032;2023-07-13T04:11:17;100300.06;;;15.58;100.00
60345;BME280;46188;52.324;8.032;2023-07-13T04:13:42;100298.25;;;15.60;100.00
60345;BME280;46188;52.324;8.032;2023-07-13T04:16:08;100291.09;;;15.66;100.00
60345;BME280;46188;52.324;8.032;2023-07-13T04:18:33;100297.25;;;15.68;100.00
60345;BME280;46188;52.324;8.032;2023-07-13T04:20:58;100305.25;;;15.65;100.00
60345;BME280;46188;52.324;8.032;2023-07-13T04:23:23;100307.91;;;15.65;100.00
60345;BME280;46188;52.324;8.032;2023-07-13T04:25:51;100308.84;;;15.63;100.00
60345;BME280;46188;52.324;8.032;2023-07-13T04:28:19;100307.09;;;15.59;100.00
60345;BME280;46188;52.324;8.032;2023-07-13T04:30:45;100318.69;;;15.55;100.00
60345;BME280;46188;52.324;8.032;2023-07-13T04:33:10;100309.84;;;15.54;100.00
60345;BME280;46188;52.324;8.032;2023-07-13T04:35:36;100315.19;;;15.53;100.00
60345;BME280;46188;52.324;8.032;2023-07-13T04:38:02;100319.53;;;15.57;100.00
60345;BME280;46188;52.324;8.032;2023-07-13T04:40:28;100317.88;;;15.49;100.00
60345;BME280;46188;52.324;8.032;2023-07-13T04:42:53;100306.38;;;15.47;100.00
60345;BME280;46188;52.324;8.032;2023-07-13T04:45:18;100309.94;;;15.45;100.00
60345;BME280;46188;52.324;8.032;2023-07-13T04:47:44;100311.72;;;15.46;100.00
60345;BME280;46188;52.324;8.032;2023-07-13T04:50:09;100315.25;;;15.45;100.00
60345;BME280;46188;52.324;8.032;2023-07-13T04:52:36;100315.28;;;15.42;100.00
60345;BME280;46188;52.324;8.032;2023-07-13T04:55:01;100314.34;;;15.47;100.00
60345;BME280;46188;52.324;8.032;2023-07-13T04:57:27;100315.19;;;15.53;100.00
60345;BME280;46188;52.324;8.032;2023-07-13T04:59:52;100319.50;;;15.60;100.00
60345;BME280;46188;52.324;8.032;2023-07-13T05:02:18;100320.41;;;15.59;100.00
60345;BME280;46188;52.324;8.032;2023-07-13T05:04:46;100324.84;;;15.57;100.00
60345;BME280;46188;52.324;8.032;2023-07-13T05:07:11;100320.47;;;15.56;100.00
60345;BME280;46188;52.324;8.032;2023-07-13T05:09:37;100313.25;;;15.64;100.00
60345;BME280;46188;52.324;8.032;2023-07-13T05:12:02;100322.88;;;15.74;100.00
60345;BME280;46188;52.324;8.032;2023-07-13T05:14:28;100314.91;;;15.74;100.00
60345;BME280;46188;52.324;8.032;2023-07-13T05:16:53;100327.25;;;15.80;100.00
60345;BME280;46188;52.324;8.032;2023-07-13T05:19:18;100329.06;;;15.75;100.00
60345;BME280;46188;52.324;8.032;2023-07-13T05:21:43;100333.50;;;15.77;100.00
60345;BME280;46188;52.324;8.032;2023-07-13T05:24:08;100335.22;;;15.81;100.00
60345;BME280;46188;52.324;8.032;2023-07-13T05:26:34;100329.91;;;15.81;100.00
60345;BME280;46188;52.324;8.032;2023-07-13T05:28:59;100331.56;;;15.89;100.00
60345;BME280;46188;52.324;8.032;2023-07-13T05:31:24;100333.34;;;15.90;100.00
60345;BME280;46188;52.324;8.032;2023-07-13T05:33:50;100341.34;;;15.88;100.00
60345;BME280;46188;52.324;8.032;2023-07-13T05:36:15;100344.78;;;15.96;100.00
60345;BME280;46188;52.324;8.032;2023-07-13T05:38:41;100334.97;;;16.01;100.00
60345;BME280;46188;52.324;8.032;2023-07-13T05:41:06;100335.69;;;16.13;100.00
60345;BME280;46188;52.324;8.032;2023-07-13T05:43:32;100336.47;;;16.19;100.00
60345;BME280;46188;52.324;8.032;2023-07-13T05:45:57;100338.34;;;16.14;100.00
60345;BME280;46188;52.324;8.032;2023-07-13T05:48:23;100339.25;;;16.12;100.00
60345;BME280;46188;52.324;8.032;2023-07-13T05:50:48;100348.13;;;16.11;100.00
60345;BME280;46188;52.324;8.032;2023-07-13T05:53:14;100354.22;;;16.20;100.00
60345;BME280;46188;52.324;8.032;2023-07-13T05:55:43;100357.66;;;16.27;100.00
60345;BME280;46188;52.324;8.032;2023-07-13T05:58:09;100355.75;;;16.37;100.00
60345;BME280;46188;52.324;8.032;2023-07-13T06:00:35;100358.28;;;16.45;100.00
60345;BME280;46188;52.324;8.032;2023-07-13T06:03:00;100360.88;;;16.49;100.00
60345;BME280;46188;52.324;8.032;2023-07-13T06:05:25;100366.19;;;16.49;100.00
60345;BME280;46188;52.324;8.032;2023-07-13T06:07:50;100360.84;;;16.51;100.00
60345;BME280;46188;52.324;8.032;2023-07-13T06:10:16;100367.94;;;16.53;100.00
60345;BME280;46188;52.324;8.032;2023-07-13T06:12:41;100369.69;;;16.51;100.00
60345;BME280;46188;52.324;8.032;2023-07-13T06:15:07;100368.00;;;16.49;100.00
60345;BME280;46188;52.324;8.032;2023-07-13T06:17:32;100366.19;;;16.49;100.00
60345;BME280;46188;52.324;8.032;2023-07-13T06:19:57;100374.09;;;16.55;100.00
60345;BME280;46188;52.324;8.032;2023-07-13T06:22:23;100379.38;;;16.58;100.00
60345;BME280;46188;52.324;8.032;2023-07-13T06:24:48;100378.44;;;16.61;100.00
60345;BME280;46188;52.324;8.032;2023-07-13T06:27:13;100381.97;;;16.61;100.00
60345;BME280;46188;52.324;8.032;2023-07-13T06:29:38;100381.03;;;16.66;100.00
60345;BME280;46188;52.324;8.032;2023-07-13T06:32:05;100380.91;;;16.73;100.00
60345;BME280;46188;52.324;8.032;2023-07-13T06:34:30;100384.31;;;16.83;100.00
60345;BME280;46188;52.324;8.032;2023-07-13T06:36:55;100381.59;;;16.88;100.00
60345;BME280;46188;52.324;8.032;2023-07-13T06:39:21;100378.00;;;16.92;100.00
60345;BME280;46188;52.324;8.032;2023-07-13T06:41:46;100379.63;;;16.99;100.00
60345;BME280;46188;52.324;8.032;2023-07-13T06:44:11;100384.78;;;17.10;100.00
60345;BME280;46188;52.324;8.032;2023-07-13T06:46:37;100381.94;;;17.19;100.00
60345;BME280;46188;52.324;8.032;2023-07-13T06:49:05;100387.31;;;17.16;100.00
60345;BME280;46188;52.324;8.032;2023-07-13T06:51:30;100389.00;;;17.23;100.00
60345;BME280;46188;52.324;8.032;2023-07-13T06:53:55;100389.66;;;17.36;100.00
60345;BME280;46188;52.324;8.032;2023-07-13T06:56:21;100387.66;;;17.46;100.00
60345;BME280;46188;52.324;8.032;2023-07-13T06:58:46;100392.78;;;17.58;100.00
60345;BME280;46188;52.324;8.032;2023-07-13T07:01:11;100398.06;;;17.61;99.87
60345;BME280;46188;52.324;8.032;2023-07-13T07:03:36;100392.47;;;17.74;99.15
60345;BME280;46188;52.324;8.032;2023-07-13T07:06:12;100395.78;;;17.86;98.40
60345;BME280;46188;52.324;8.032;2023-07-13T07:08:39;100394.72;;;17.97;98.39
60345;BME280;46188;52.324;8.032;2023-07-13T07:11:04;100399.25;;;17.93;98.21
60345;BME280;46188;52.324;8.032;2023-07-13T07:13:29;100401.13;;;17.88;98.05
60345;BME280;46188;52.324;8.032;2023-07-13T07:15:55;100400.84;;;18.00;98.05
60345;BME280;46188;52.324;8.032;2023-07-13T07:18:20;100403.19;;;18.17;97.54
60345;BME280;46188;52.324;8.032;2023-07-13T07:20:46;100400.38;;;18.23;97.43
60345;BME280;46188;52.324;8.032;2023-07-13T07:23:11;100401.88;;;18.35;97.00
60345;BME280;46188;52.324;8.032;2023-07-13T07:25:36;100410.41;;;18.53;96.40
60345;BME280;46188;52.324;8.032;2023-07-13T07:28:07;100402.88;;;18.72;95.67
60345;BME280;46188;52.324;8.032;2023-07-13T07:30:32;100403.63;;;18.77;95.23
60345;BME280;46188;52.324;8.032;2023-07-13T07:32:57;100414.28;;;18.78;95.49
60345;BME280;46188;52.324;8.032;2023-07-13T07:35:23;100404.63;;;18.71;94.77
60345;BME280;46188;52.324;8.032;2023-07-13T07:37:48;100407.72;;;18.54;94.71
60345;BME280;46188;52.324;8.032;2023-07-13T07:40:13;100408.63;;;18.52;95.18
60345;BME280;46188;52.324;8.032;2023-07-13T07:42:39;100411.44;;;18.47;94.97
60345;BME280;46188;52.324;8.032;2023-07-13T07:45:04;100415.03;;;18.44;94.78
60345;BME280;46188;52.324;8.032;2023-07-13T07:47:30;100405.13;;;18.50;94.68
60345;BME280;46188;52.324;8.032;2023-07-13T07:49:55;100407.50;;;18.63;94.35
60345;BME280;46188;52.324;8.032;2023-07-13T07:52:20;100409.09;;;18.71;93.53
60345;BME280;46188;52.324;8.032;2023-07-13T07:54:45;100407.94;;;18.83;92.47
60345;BME280;46188;52.324;8.032;2023-07-13T07:57:10;100402.94;;;19.06;91.94
60345;BME280;46188;52.324;8.032;2023-07-13T07:59:36;100409.03;;;19.11;90.81
60345;BME280;46188;52.324;8.032;2023-07-13T08:02:02;100415.44;;;19.04;91.44
60345;BME280;46188;52.324;8.032;2023-07-13T08:04:28;100417.41;;;18.97;90.73
60345;BME280;46188;52.324;8.032;2023-07-13T08:06:53;100418.63;;;18.83;90.97
60345;BME280;46188;52.324;8.032;2023-07-13T08:09:18;100414.06;;;18.88;90.52
60345;BME280;46188;52.324;8.032;2023-07-13T08:11:43;100420.91;;;18.99;90.33
60345;BME280;46188;52.324;8.032;2023-07-13T08:14:09;100415.44;;;19.04;90.09
60345;BME280;46188;52.324;8.032;2023-07-13T08:16:34;100402.13;;;19.03;89.62
60345;BME280;46188;52.324;8.032;2023-07-13T08:18:59;100411.19;;;18.97;89.67
60345;BME280;46188;52.324;8.032;2023-07-13T08:21:25;100418.25;;;18.98;89.11
60345;BME280;46188;52.324;8.032;2023-07-13T08:23:50;100408.91;;;19.16;88.52
60345;BME280;46188;52.324;8.032;2023-07-13T08:26:15;100416.22;;;19.44;87.56
60345;BME280;46188;52.324;8.032;2023-07-13T08:28:41;100415.34;;;19.43;86.11
60345;BME280;46188;52.324;8.032;2023-07-13T08:31:06;100415.41;;;19.42;86.24
60345;BME280;46188;52.324;8.032;2023-07-13T08:33:35;100426.38;;;19.64;85.48
60345;BME280;46188;52.324;8.032;2023-07-13T08:36:01;100419.75;;;19.79;85.16
60345;BME280;46188;52.324;8.032;2023-07-13T08:38:26;100416.69;;;19.92;84.28
60345;BME280;46188;52.324;8.032;2023-07-13T08:40:55;100409.97;;;20.09;83.64
60345;BME280;46188;52.324;8.032;2023-07-13T08:43:25;100407.47;;;20.34;83.12
60345;BME280;46188;52.324;8.032;2023-07-13T08:48:53;100406.63;;;20.60;80.15
60345;BME280;46188;52.324;8.032;2023-07-13T08:51:31;100412.56;;;20.72;79.90
60345;BME280;46188;52.324;8.032;2023-07-13T08:54:03;100403.06;;;20.90;79.04
60345;BME280;46188;52.324;8.032;2023-07-13T08:56:31;100406.00;;;20.82;78.33
60345;BME280;46188;52.324;8.032;2023-07-13T08:59:00;100407.31;;;20.97;78.05
60345;BME280;46188;52.324;8.032;2023-07-13T09:02:06;100413.97;;;21.12;76.99
60345;BME280;46188;52.324;8.032;2023-07-13T09:04:37;100406.44;;;21.22;76.55
60345;BME280;46188;52.324;8.032;2023-07-13T09:07:29;100407.19;;;20.72;76.10
60345;BME280;46188;52.324;8.032;2023-07-13T09:10:20;100409.19;;;20.65;75.14
60345;BME280;46188;52.324;8.032;2023-07-13T09:15:41;100412.19;;;20.84;75.20
60345;BME280;46188;52.324;8.032;2023-07-13T09:18:22;100421.00;;;20.88;75.11
60345;BME280;46188;52.324;8.032;2023-07-13T09:20:53;100403.69;;;20.70;75.79
60345;BME280;46188;52.324;8.032;2023-07-13T09:23:21;100421.53;;;20.71;75.85
60345;BME280;46188;52.324;8.032;2023-07-13T09:25:49;100414.88;;;20.84;74.71
60345;BME280;46188;52.324;8.032;2023-07-13T09:28:26;100406.00;;;21.09;73.67
60345;BME280;46188;52.324;8.032;2023-07-13T09:30:57;100404.66;;;21.22;73.08
60345;BME280;46188;52.324;8.032;2023-07-13T09:33:25;100406.19;;;21.29;71.33
60345;BME280;46188;52.324;8.032;2023-07-13T09:35:54;100410.22;;;21.16;71.20
60345;BME280;46188;52.324;8.032;2023-07-13T09:38:22;100422.81;;;21.14;70.78
60345;BME280;46188;52.324;8.032;2023-07-13T09:43:28;100417.75;;;21.31;70.80
60345;BME280;46188;52.324;8.032;2023-07-13T09:45:54;100417.22;;;21.47;69.67
60345;BME280;46188;52.324;8.032;2023-07-13T09:48:19;100406.00;;;21.35;69.90
60345;BME280;46188;52.324;8.032;2023-07-13T09:50:45;100408.38;;;21.43;69.92
60345;BME280;46188;52.324;8.032;2023-07-13T09:53:13;100419.44;;;21.61;70.17
60345;BME280;46188;52.324;8.032;2023-07-13T09:55:40;100418.69;;;21.57;70.37
60345;BME280;46188;52.324;8.032;2023-07-13T09:58:24;100423.44;;;21.49;71.05
60345;BME280;46188;52.324;8.032;2023-07-13T10:00:58;100417.91;;;21.79;69.79
60345;BME280;46188;52.324;8.032;2023-07-13T10:03:27;100425.00;;;22.05;69.35
60345;BME280;46188;52.324;8.032;2023-07-13T10:05:53;100427.44;;;22.36;68.46
60345;BME280;46188;52.324;8.032;2023-07-13T10:08:27;100417.06;;;22.49;66.91
60345;BME280;46188;52.324;8.032;2023-07-13T10:10:57;100426.72;;;22.55;65.28
60345;BME280;46188;52.324;8.032;2023-07-13T10:13:51;100428.06;;;22.43;63.78
60345;BME280;46188;52.324;8.032;2023-07-13T10:16:17;100423.16;;;22.54;63.93
60345;BME280;46188;52.324;8.032;2023-07-13T10:18:49;100411.16;;;22.85;63.37
60345;BME280;46188;52.324;8.032;2023-07-13T10:21:21;100416.22;;;22.93;62.79
60345;BME280;46188;52.324;8.032;2023-07-13T10:23:51;100424.84;;;23.01;62.85
60345;BME280;46188;52.324;8.032;2023-07-13T10:26:26;100422.16;;;22.79;61.13
60345;BME280;46188;52.324;8.032;2023-07-13T10:28:55;100432.84;;;22.80;62.05
60345;BME280;46188;52.324;8.032;2023-07-13T10:31:22;100431.13;;;22.56;62.52
60345;BME280;46188;52.324;8.032;2023-07-13T10:33:48;100439.00;;;22.38;63.35
60345;BME280;46188;52.324;8.032;2023-07-13T10:36:30;100443.84;;;22.03;63.81
60345;BME280;46188;52.324;8.032;2023-07-13T10:38:57;100437.47;;;21.57;64.74
60345;BME280;46188;52.324;8.032;2023-07-13T10:41:26;100433.16;;;21.51;65.10
60345;BME280;46188;52.324;8.032;2023-07-13T10:43:54;100431.38;;;21.52;65.32
60345;BME280;46188;52.324;8.032;2023-07-13T10:46:23;100449.81;;;21.61;66.06
60345;BME280;46188;52.324;8.032;2023-07-13T10:48:56;100434.31;;;21.69;65.09
60345;BME280;46188;52.324;8.032;2023-07-13T10:51:22;100448.63;;;21.95;64.57
60345;BME280;46188;52.324;8.032;2023-07-13T10:54:14;100442.91;;;22.04;63.76
60345;BME280;46188;52.324;8.032;2023-07-13T10:56:42;100435.78;;;22.03;64.44
60345;BME280;46188;52.324;8.032;2023-07-13T10:59:25;100440.69;;;21.67;64.34
60345;BME280;46188;52.324;8.032;2023-07-13T11:02:09;100447.25;;;21.58;65.87
60345;BME280;46188;52.324;8.032;2023-07-13T11:04:48;100446.56;;;21.78;65.11
60345;BME280;46188;52.324;8.032;2023-07-13T11:07:51;100444.00;;;21.99;64.56
60345;BME280;46188;52.324;8.032;2023-07-13T11:10:47;100439.03;;;21.88;64.54
60345;BME280;46188;52.324;8.032;2023-07-13T11:13:37;100453.50;;;21.84;65.35
60345;BME280;46188;52.324;8.032;2023-07-13T11:16:13;100444.19;;;21.94;65.31
60345;BME280;46188;52.324;8.032;2023-07-13T11:18:38;100437.78;;;22.22;65.16
60345;BME280;46188;52.324;8.032;2023-07-13T11:23:43;100429.41;;;22.77;63.66
60345;BME280;46188;52.324;8.032;2023-07-13T11:26:38;100439.88;;;23.07;62.96
60345;BME280;46188;52.324;8.032;2023-07-13T11:29:32;100439.03;;;23.27;61.31
60345;BME280;46188;52.324;8.032;2023-07-13T11:31:59;100437.47;;;22.77;60.97
60345;BME280;46188;52.324;8.032;2023-07-13T11:34:28;100433.34;;;22.68;61.95
60345;BME280;46188;52.324;8.032;2023-07-13T11:36:56;100447.47;;;22.73;62.23
60345;BME280;46188;52.324;8.032;2023-07-13T11:39:30;100433.97;;;22.53;61.79
60345;BME280;46188;52.324;8.032;2023-07-13T11:41:59;100439.75;;;22.42;62.01
60345;BME280;46188;52.324;8.032;2023-07-13T11:44:27;100450.59;;;22.62;61.47
60345;BME280;46188;52.324;8.032;2023-07-13T11:46:55;100441.34;;;22.47;60.76
60345;BME280;46188;52.324;8.032;2023-07-13T11:49:24;100439.78;;;22.40;59.80
60345;BME280;46188;52.324;8.032;2023-07-13T11:51:51;100453.56;;;22.55;60.20
60345;BME280;46188;52.324;8.032;2023-07-13T11:54:28;100462.66;;;22.51;59.54
60345;BME280;46188;52.324;8.032;2023-07-13T11:57:16;100458.00;;;22.32;59.22
60345;BME280;46188;52.324;8.032;2023-07-13T11:59:48;100451.09;;;22.01;59.51
60345;BME280;46188;52.324;8.032;2023-07-13T12:02:24;100452.22;;;21.94;59.85
60345;BME280;46188;52.324;8.032;2023-07-13T12:04:52;100455.69;;;21.72;60.29
60345;BME280;46188;52.324;8.032;2023-07-13T12:07:18;100457.06;;;22.09;59.97
60345;BME280;46188;52.324;8.032;2023-07-13T12:09:44;100453.97;;;22.67;59.41
60345;BME280;46188;52.324;8.032;2023-07-13T12:12:16;100446.41;;;22.99;58.67
60345;BME280;46188;52.324;8.032;2023-07-13T12:14:42;100461.69;;;22.53;58.53
60345;BME280;46188;52.324;8.032;2023-07-13T12:17:16;100453.09;;;22.20;58.66
60345;BME280;46188;52.324;8.032;2023-07-13T12:19:43;100464.16;;;22.10;58.92
60345;BME280;46188;52.324;8.032;2023-07-13T12:22:11;100453.00;;;22.46;58.07
60345;BME280;46188;52.324;8.032;2023-07-13T12:27:04;100453.53;;;22.78;57.38
60345;BME280;46188;52.324;8.032;2023-07-13T12:29:31;100468.28;;;22.68;57.75
60345;BME280;46188;52.324;8.032;2023-07-13T12:31:57;100471.28;;;22.37;57.58
60345;BME280;46188;52.324;8.032;2023-07-13T12:34:25;100479.66;;;22.02;57.66
60345;BME280;46188;52.324;8.032;2023-07-13T12:37:01;100494.31;;;21.68;58.08
60345;BME280;46188;52.324;8.032;2023-07-13T12:39:35;100538.91;;;21.16;60.02
60345;BME280;46188;52.324;8.032;2023-07-13T12:42:24;100519.31;;;20.54;62.14
60345;BME280;46188;52.324;8.032;2023-07-13T12:45:19;100545.38;;;20.16;64.27
60345;BME280;46188;52.324;8.032;2023-07-13T12:47:50;100575.50;;;19.52;68.32
60345;BME280;46188;52.324;8.032;2023-07-13T12:50:20;100576.72;;;19.02;75.19
60345;BME280;46188;52.324;8.032;2023-07-13T12:53:02;100578.84;;;18.40;83.61
60345;BME280;46188;52.324;8.032;2023-07-13T12:55:47;100579.69;;;17.96;90.32
60345;BME280;46188;52.324;8.032;2023-07-13T12:58:19;100566.44;;;17.89;94.00
60345;BME280;46188;52.324;8.032;2023-07-13T13:00:50;100568.25;;;17.89;96.10
60345;BME280;46188;52.324;8.032;2023-07-13T13:03:31;100562.19;;;17.78;98.41
60345;BME280;46188;52.324;8.032;2023-07-13T13:06:06;100555.13;;;17.74;100.00